createdAt,value
2017-04-04T00:00:13.683Z,0
2017-04-04T00:01:22.573Z,0
2017-04-04T00:02:31.613Z,0
2017-04-04T00:03:40.824Z,0
2017-04-04T00:04:49.714Z,0
2017-04-04T00:05:58.603Z,0
2017-04-04T00:07:07.496Z,0
2017-04-04T00:08:16.432Z,0
2017-04-04T00:09:25.319Z,0
2017-04-04T00:10:34.209Z,0
2017-04-04T00:11:43.420Z,0
2017-04-04T00:12:52.308Z,0
2017-04-04T00:14:01.344Z,0
2017-04-04T00:15:10.234Z,0
2017-04-04T00:16:19.125Z,0
2017-04-04T00:17:28.013Z,0
2017-04-04T00:18:36.899Z,0
2017-04-04T00:19:45.790Z,0
2017-04-04T00:20:54.678Z,0
2017-04-04T00:22:03.894Z,0
2017-04-04T00:23:13.438Z,0
2017-04-04T00:24:22.651Z,0
2017-04-04T00:25:31.690Z,0
2017-04-04T00:26:40.580Z,0
2017-04-04T00:27:49.469Z,0
2017-04-04T00:28:58.353Z,0
2017-04-04T00:30:07.243Z,0
2017-04-04T00:31:16.383Z,0
2017-04-04T00:32:25.268Z,0
2017-04-04T00:33:34.156Z,0
2017-04-04T00:34:43.044Z,0
2017-04-04T00:35:51.936Z,0
2017-04-04T00:37:01.249Z,0
2017-04-04T00:38:10.136Z,0
2017-04-04T00:39:19.020Z,0
2017-04-04T00:40:27.907Z,0
2017-04-04T00:41:37.131Z,0
2017-04-04T00:42:46.071Z,0
2017-04-04T00:43:54.953Z,0
2017-04-04T00:45:03.840Z,0
2017-04-04T00:46:12.725Z,0
2017-04-04T00:47:21.620Z,0
2017-04-04T00:48:30.615Z,0
2017-04-04T00:49:39.504Z,0
2017-04-04T00:50:48.712Z,0
2017-04-04T00:51:57.598Z,0
2017-04-04T00:53:06.487Z,0
2017-04-04T00:54:15.648Z,0
2017-04-04T01:02:30.046Z,0
2017-04-04T01:03:38.932Z,0
2017-04-04T01:04:47.813Z,0
2017-04-04T01:05:56.709Z,0
2017-04-04T01:07:05.596Z,0
2017-04-04T01:08:14.960Z,0
2017-04-04T01:09:23.845Z,0
2017-04-04T01:10:33.056Z,0
2017-04-04T01:11:41.945Z,0
2017-04-04T01:12:50.864Z,0
2017-04-04T01:13:59.950Z,0
2017-04-04T01:15:08.838Z,0
2017-04-04T01:16:18.060Z,0
2017-04-04T01:17:27.281Z,0
2017-04-04T01:18:36.490Z,0
2017-04-04T01:19:45.531Z,0
2017-04-04T01:20:54.428Z,0
2017-04-04T01:22:03.967Z,0
2017-04-04T01:23:13.178Z,0
2017-04-04T01:24:22.060Z,0
2017-04-04T01:25:31.097Z,0
2017-04-04T01:26:39.977Z,0
2017-04-04T01:27:48.861Z,0
2017-04-04T01:28:57.747Z,0
2017-04-04T01:30:07.287Z,0
2017-04-04T01:31:16.222Z,0
2017-04-04T01:32:25.110Z,0
2017-04-04T01:33:34.000Z,0
2017-04-04T01:34:42.885Z,0
2017-04-04T01:35:51.766Z,0
2017-04-04T01:37:01.093Z,0
2017-04-04T01:38:10.631Z,0
2017-04-04T01:39:19.515Z,0
2017-04-04T01:40:28.411Z,0
2017-04-04T01:41:37.294Z,0
2017-04-04T01:42:46.333Z,0
2017-04-04T01:43:55.222Z,0
2017-04-04T01:45:04.435Z,0
2017-04-04T01:46:13.327Z,0
2017-04-04T01:47:22.257Z,0
2017-04-04T01:48:31.617Z,0
2017-04-04T01:49:40.502Z,0
2017-04-04T01:50:49.387Z,0
2017-04-04T01:51:58.933Z,0
2017-04-04T01:53:07.817Z,0
2017-04-04T01:54:17.076Z,0
2017-04-04T01:55:25.958Z,0
2017-04-04T01:56:34.842Z,0
2017-04-04T01:57:43.727Z,0
2017-04-04T01:58:52.941Z,0
2017-04-04T02:00:02.312Z,0
2017-04-04T02:01:11.198Z,0
2017-04-04T02:02:20.090Z,0
2017-04-04T02:03:28.978Z,0
2017-04-04T02:04:38.195Z,0
2017-04-04T02:05:47.433Z,0
2017-04-04T02:06:56.645Z,0
2017-04-04T02:08:05.532Z,0
2017-04-04T02:09:14.423Z,0
2017-04-04T02:10:23.307Z,0
2017-04-04T02:11:32.346Z,0
2017-04-04T02:12:41.557Z,0
2017-04-04T02:13:50.446Z,0
2017-04-04T02:14:59.372Z,0
2017-04-04T02:16:08.583Z,0
2017-04-04T02:17:17.898Z,0
2017-04-04T02:18:26.784Z,0
2017-04-04T02:19:35.667Z,0
2017-04-04T02:20:44.562Z,0
2017-04-04T02:21:53.773Z,0
2017-04-04T02:23:03.082Z,0
2017-04-04T02:24:11.971Z,0
2017-04-04T02:25:21.178Z,0
2017-04-04T02:26:30.066Z,0
2017-04-04T02:27:38.952Z,0
2017-04-04T02:28:47.988Z,0
2017-04-04T02:29:56.874Z,0
2017-04-04T02:31:06.406Z,0
2017-04-04T02:32:15.292Z,0
2017-04-04T02:33:25.195Z,0
2017-04-04T02:34:34.239Z,0
2017-04-04T02:35:43.453Z,0
2017-04-04T02:36:52.338Z,0
2017-04-04T02:38:01.223Z,0
2017-04-04T02:39:10.438Z,0
2017-04-04T02:40:19.615Z,0
2017-04-04T02:41:28.499Z,0
2017-04-04T02:42:37.750Z,0
2017-04-04T02:43:46.635Z,0
2017-04-04T02:44:55.846Z,0
2017-04-04T02:46:05.359Z,0
2017-04-04T02:47:14.245Z,0
2017-04-04T02:48:23.138Z,0
2017-04-04T02:49:32.028Z,0
2017-04-04T02:50:41.234Z,0
2017-04-04T02:51:50.220Z,0
2017-04-04T02:52:59.427Z,0
2017-04-04T02:54:08.638Z,0
2017-04-04T02:55:17.523Z,0
2017-04-04T02:56:26.737Z,0
2017-04-04T02:57:35.722Z,0
2017-04-04T02:58:44.608Z,0
2017-04-04T02:59:53.495Z,0
2017-04-04T03:01:02.705Z,0
2017-04-04T03:02:11.592Z,0
2017-04-04T03:03:20.477Z,0
2017-04-04T03:04:29.363Z,0
2017-04-04T03:05:38.245Z,0
2017-04-04T03:06:47.145Z,0
2017-04-04T03:07:56.029Z,0
2017-04-04T03:09:05.237Z,0
2017-04-04T03:10:14.123Z,0
2017-04-04T03:11:23.338Z,0
2017-04-04T03:12:32.552Z,0
2017-04-04T03:13:41.441Z,0
2017-04-04T03:14:50.377Z,0
2017-04-04T03:15:59.594Z,0
2017-04-04T03:17:08.482Z,0
2017-04-04T03:18:17.372Z,0
2017-04-04T03:19:26.256Z,0
2017-04-04T03:20:35.194Z,0
2017-04-04T03:21:44.078Z,0
2017-04-04T03:22:53.289Z,0
2017-04-04T03:24:02.501Z,0
2017-04-04T03:25:11.385Z,0
2017-04-04T03:26:20.418Z,0
2017-04-04T03:27:29.961Z,0
2017-04-04T03:28:38.855Z,0
2017-04-04T03:29:47.741Z,0
2017-04-04T03:30:56.950Z,0
2017-04-04T03:32:05.986Z,0
2017-04-04T03:33:14.877Z,0
2017-04-04T03:34:23.767Z,0
2017-04-04T03:35:32.654Z,0
2017-04-04T03:36:41.555Z,0
2017-04-04T03:37:50.540Z,0
2017-04-04T03:38:59.430Z,0
2017-04-04T03:40:08.641Z,0
2017-04-04T03:41:17.526Z,0
2017-04-04T03:42:26.424Z,0
2017-04-04T03:43:35.314Z,0
2017-04-04T03:44:44.200Z,0
2017-04-04T03:45:53.120Z,0
2017-04-04T03:47:02.015Z,0
2017-04-04T03:48:11.224Z,0
2017-04-04T03:49:20.255Z,0
2017-04-04T03:50:29.461Z,0
2017-04-04T03:51:38.350Z,0
2017-04-04T03:52:47.234Z,0
2017-04-04T03:53:56.126Z,0
2017-04-04T03:55:05.317Z,0
2017-04-04T03:56:14.202Z,0
2017-04-04T03:57:23.085Z,0
2017-04-04T03:58:31.974Z,0
2017-04-04T03:59:40.869Z,0
2017-04-04T04:00:50.185Z,0
2017-04-04T04:01:59.133Z,0
2017-04-04T04:03:08.344Z,0
2017-04-04T04:04:17.227Z,0
2017-04-04T04:05:26.111Z,0
2017-04-04T04:06:35.568Z,0
2017-04-04T04:07:44.782Z,0
2017-04-04T04:08:53.992Z,0
2017-04-04T04:10:02.875Z,0
2017-04-04T04:11:11.766Z,0
2017-04-04T04:12:20.801Z,0
2017-04-04T04:13:29.686Z,0
2017-04-04T04:14:38.571Z,0
2017-04-04T04:15:47.459Z,0
2017-04-04T04:16:56.674Z,0
2017-04-04T04:18:05.712Z,0
2017-04-04T04:19:14.602Z,0
2017-04-04T04:20:24.152Z,0
2017-04-04T04:21:33.684Z,0
2017-04-04T04:22:42.573Z,0
2017-04-04T04:23:51.859Z,0
2017-04-04T04:25:00.742Z,0
2017-04-04T04:26:09.626Z,0
2017-04-04T04:27:18.513Z,0
2017-04-04T04:28:27.397Z,0
2017-04-04T04:29:36.857Z,0
2017-04-04T04:30:46.066Z,0
2017-04-04T04:31:54.956Z,0
2017-04-04T04:33:04.162Z,0
2017-04-04T04:34:13.047Z,0
2017-04-04T04:35:22.083Z,0
2017-04-04T04:36:30.964Z,0
2017-04-04T04:37:40.169Z,0
2017-04-04T04:38:49.055Z,0
2017-04-04T04:39:57.946Z,0
2017-04-04T04:41:06.983Z,0
2017-04-04T04:42:16.193Z,0
2017-04-04T04:43:25.072Z,0
2017-04-04T04:44:33.957Z,5
2017-04-04T04:45:43.214Z,5
2017-04-04T04:46:52.148Z,5
2017-04-04T04:48:01.037Z,5
2017-04-04T04:49:09.930Z,5
2017-04-04T04:50:18.815Z,10
2017-04-04T04:51:27.754Z,10
2017-04-04T04:52:36.792Z,10
2017-04-04T04:53:45.671Z,10
2017-04-04T04:54:54.551Z,15
2017-04-04T04:56:03.761Z,15
2017-04-04T04:57:12.643Z,15
2017-04-04T04:58:21.953Z,15
2017-04-04T04:59:31.160Z,20
2017-04-04T05:00:40.699Z,20
2017-04-04T05:01:50.238Z,20
2017-04-04T05:02:59.127Z,25
2017-04-04T05:04:08.495Z,25
2017-04-04T05:05:17.704Z,25
2017-04-04T05:06:26.920Z,30
2017-04-04T05:07:36.131Z,30
2017-04-04T05:08:45.014Z,35
2017-04-04T05:09:54.101Z,35
2017-04-04T05:11:02.987Z,35
2017-04-04T05:12:11.870Z,40
2017-04-04T05:13:20.756Z,40
2017-04-04T05:14:29.642Z,45
2017-04-04T05:15:38.828Z,45
2017-04-04T05:16:47.716Z,45
2017-04-04T05:17:56.605Z,50
2017-04-04T05:19:05.491Z,50
2017-04-04T05:20:14.382Z,55
2017-04-04T05:21:23.573Z,55
2017-04-04T05:22:32.463Z,55
2017-04-04T05:23:41.348Z,60
2017-04-04T05:24:50.236Z,60
2017-04-04T05:25:59.444Z,65
2017-04-04T05:27:08.657Z,65
2017-04-04T05:28:17.869Z,65
2017-04-04T05:29:27.085Z,70
2017-04-04T05:30:36.297Z,70
2017-04-04T05:31:45.199Z,75
2017-04-04T05:32:54.580Z,75
2017-04-04T05:34:03.793Z,75
2017-04-04T05:35:12.680Z,80
2017-04-04T05:36:21.902Z,80
2017-04-04T05:37:31.436Z,85
2017-04-04T05:38:40.472Z,85
2017-04-04T05:39:50.328Z,85
2017-04-04T05:40:59.206Z,90
2017-04-04T05:42:08.417Z,90
2017-04-04T05:43:17.308Z,90
2017-04-04T05:44:26.292Z,95
2017-04-04T05:45:35.503Z,95
2017-04-04T05:46:44.393Z,95
2017-04-04T05:47:53.278Z,100
2017-04-04T05:49:02.486Z,100
2017-04-04T05:50:11.722Z,100
2017-04-04T05:51:20.932Z,105
2017-04-04T05:52:29.819Z,105
2017-04-04T05:53:39.030Z,105
2017-04-04T05:54:47.920Z,105
2017-04-04T05:55:57.606Z,110
2017-04-04T05:57:06.853Z,110
2017-04-04T05:58:15.746Z,110
2017-04-04T05:59:24.632Z,115
2017-04-04T06:00:33.520Z,115
2017-04-04T06:01:42.821Z,115
2017-04-04T06:02:51.716Z,115
2017-04-04T06:04:00.925Z,120
2017-04-04T06:05:10.462Z,120
2017-04-04T06:06:19.677Z,120
2017-04-04T06:07:28.670Z,120
2017-04-04T06:08:37.884Z,125
2017-04-04T06:09:46.770Z,125
2017-04-04T06:10:56.309Z,125
2017-04-04T06:12:05.841Z,125
2017-04-04T06:13:15.207Z,125
2017-04-04T06:14:24.751Z,130
2017-04-04T06:15:33.965Z,130
2017-04-04T06:16:42.860Z,130
2017-04-04T06:17:52.073Z,130
2017-04-04T06:19:01.434Z,135
2017-04-04T06:20:10.975Z,135
2017-04-04T06:21:19.881Z,135
2017-04-04T06:22:29.139Z,135
2017-04-04T06:23:38.022Z,135
2017-04-04T06:24:47.214Z,140
2017-04-04T06:25:56.107Z,140
2017-04-04T06:27:04.990Z,140
2017-04-04T06:28:14.199Z,140
2017-04-04T06:29:23.098Z,140
2017-04-04T06:30:33.108Z,145
2017-04-04T06:31:41.997Z,145
2017-04-04T06:32:51.217Z,145
2017-04-04T06:34:00.104Z,145
2017-04-04T06:35:09.367Z,145
2017-04-04T06:36:18.415Z,145
2017-04-04T06:37:27.304Z,150
2017-04-04T06:38:36.195Z,150
2017-04-04T06:39:45.085Z,150
2017-04-04T06:40:53.971Z,150
2017-04-04T06:42:02.909Z,150
2017-04-04T06:43:11.840Z,150
2017-04-04T06:44:20.731Z,155
2017-04-04T06:45:29.622Z,155
2017-04-04T06:46:38.516Z,155
2017-04-04T06:47:47.600Z,155
2017-04-04T06:48:56.822Z,155
2017-04-04T06:50:05.706Z,155
2017-04-04T06:51:14.593Z,155
2017-04-04T06:52:23.805Z,160
2017-04-04T06:53:33.414Z,160
2017-04-04T06:54:42.304Z,160
2017-04-04T06:55:51.243Z,160
2017-04-04T06:57:00.454Z,160
2017-04-04T06:58:09.384Z,160
2017-04-04T06:59:18.370Z,160
2017-04-04T07:00:27.258Z,165
2017-04-04T07:01:36.472Z,165
2017-04-04T07:02:45.686Z,165
2017-04-04T07:03:55.233Z,165
2017-04-04T07:05:04.525Z,165
2017-04-04T07:06:13.416Z,165
2017-04-04T07:07:22.302Z,165
2017-04-04T07:08:31.195Z,165
2017-04-04T07:09:40.082Z,170
2017-04-04T07:10:49.020Z,170
2017-04-04T07:11:57.910Z,170
2017-04-04T07:13:07.452Z,170
2017-04-04T07:14:16.338Z,170
2017-04-04T07:15:25.557Z,170
2017-04-04T07:16:34.649Z,170
2017-04-04T07:17:43.544Z,170
2017-04-04T07:18:52.431Z,175
2017-04-04T07:20:01.320Z,175
2017-04-04T07:21:10.535Z,170
2017-04-04T07:22:19.639Z,170
2017-04-04T07:23:28.852Z,170
2017-04-04T07:24:38.063Z,170
2017-04-04T07:25:46.949Z,170
2017-04-04T07:26:55.839Z,170
2017-04-04T07:28:04.979Z,170
2017-04-04T07:29:14.200Z,175
2017-04-04T07:30:23.093Z,175
2017-04-04T07:31:32.015Z,175
2017-04-04T07:32:40.903Z,175
2017-04-04T07:33:50.166Z,175
2017-04-04T07:34:59.419Z,175
2017-04-04T07:36:08.630Z,175
2017-04-04T07:37:17.517Z,175
2017-04-04T07:38:26.405Z,180
2017-04-04T07:39:35.772Z,180
2017-04-04T07:40:44.667Z,180
2017-04-04T07:41:53.562Z,180
2017-04-04T07:43:02.849Z,180
2017-04-04T07:44:12.069Z,180
2017-04-04T07:45:21.816Z,180
2017-04-04T07:46:30.703Z,185
2017-04-04T07:47:39.588Z,185
2017-04-04T07:48:48.475Z,185
2017-04-04T07:49:57.365Z,185
2017-04-04T07:51:07.057Z,185
2017-04-04T07:52:16.272Z,190
2017-04-04T07:53:25.482Z,190
2017-04-04T07:54:35.019Z,190
2017-04-04T07:55:44.232Z,190
2017-04-04T07:56:53.270Z,195
2017-04-04T07:58:02.485Z,195
2017-04-04T07:59:11.377Z,195
2017-04-04T08:00:20.593Z,195
2017-04-04T08:01:30.139Z,195
2017-04-04T08:02:39.278Z,195
2017-04-04T08:03:48.169Z,195
2017-04-04T08:04:57.709Z,195
2017-04-04T08:06:06.603Z,200
2017-04-04T08:07:15.490Z,200
2017-04-04T08:08:24.533Z,200
2017-04-04T08:09:33.744Z,200
2017-04-04T08:10:42.634Z,200
2017-04-04T08:11:51.533Z,205
2017-04-04T08:13:00.745Z,205
2017-04-04T08:14:10.033Z,205
2017-04-04T08:15:19.252Z,205
2017-04-04T08:16:28.140Z,210
2017-04-04T08:17:37.027Z,210
2017-04-04T08:18:45.915Z,215
2017-04-04T08:19:55.381Z,215
2017-04-04T08:21:04.276Z,215
2017-04-04T08:22:13.493Z,215
2017-04-04T08:23:22.385Z,215
2017-04-04T08:24:31.282Z,215
2017-04-04T08:25:40.219Z,215
2017-04-04T08:26:49.111Z,215
2017-04-04T08:27:58.007Z,220
2017-04-04T08:29:07.226Z,220
2017-04-04T08:30:16.113Z,220
2017-04-04T08:31:25.838Z,220
2017-04-04T08:32:34.724Z,225
2017-04-04T08:33:43.612Z,225
2017-04-04T08:34:52.826Z,230
2017-04-04T08:36:01.714Z,240
2017-04-04T08:37:10.750Z,250
2017-04-04T08:38:19.643Z,255
2017-04-04T08:39:28.871Z,255
2017-04-04T08:40:37.760Z,255
2017-04-04T08:41:46.691Z,250
2017-04-04T08:42:55.826Z,245
2017-04-04T08:44:05.037Z,255
2017-04-04T08:45:14.251Z,255
2017-04-04T08:46:23.550Z,260
2017-04-04T08:47:32.446Z,255
2017-04-04T08:48:41.532Z,250
2017-04-04T08:49:50.747Z,245
2017-04-04T08:50:59.640Z,245
2017-04-04T08:52:08.535Z,240
2017-04-04T08:53:18.075Z,245
2017-04-04T08:54:27.543Z,255
2017-04-04T08:55:36.432Z,265
2017-04-04T08:56:45.330Z,270
2017-04-04T08:57:54.547Z,265
2017-04-04T08:59:04.091Z,270
2017-04-04T09:00:13.458Z,275
2017-04-04T09:01:23.332Z,280
2017-04-04T09:02:32.241Z,295
2017-04-04T09:03:41.135Z,320
2017-04-04T09:04:50.349Z,345
2017-04-04T09:06:00.043Z,370
2017-04-04T09:07:09.597Z,390
2017-04-04T09:08:18.819Z,405
2017-04-04T09:09:28.378Z,420
2017-04-04T09:10:37.278Z,435
2017-04-04T09:11:47.123Z,430
2017-04-04T09:12:56.669Z,425
2017-04-04T09:14:05.567Z,425
2017-04-04T09:15:14.462Z,420
2017-04-04T09:16:23.688Z,425
2017-04-04T09:17:32.780Z,435
2017-04-04T09:18:41.673Z,465
2017-04-04T09:19:50.565Z,450
2017-04-04T09:20:59.464Z,445
2017-04-04T09:22:08.683Z,420
2017-04-04T09:23:18.053Z,405
2017-04-04T09:24:26.947Z,375
2017-04-04T09:25:36.160Z,365
2017-04-04T09:26:45.087Z,365
2017-04-04T09:27:53.983Z,375
2017-04-04T09:29:02.875Z,390
2017-04-04T09:30:11.767Z,385
2017-04-04T09:31:20.655Z,385
2017-04-04T09:32:29.544Z,375
2017-04-04T09:33:38.437Z,390
2017-04-04T09:34:47.710Z,410
2017-04-04T09:35:56.928Z,420
2017-04-04T09:37:05.820Z,440
2017-04-04T09:38:14.720Z,450
2017-04-04T09:39:23.631Z,450
2017-04-04T09:40:32.679Z,405
2017-04-04T09:41:41.896Z,385
2017-04-04T09:42:50.789Z,370
2017-04-04T09:43:59.679Z,360
2017-04-04T09:45:08.902Z,360
2017-04-04T09:46:17.846Z,340
2017-04-04T09:47:26.780Z,355
2017-04-04T09:48:35.674Z,385
2017-04-04T09:49:44.570Z,425
2017-04-04T09:50:53.789Z,430
2017-04-04T09:52:03.058Z,435
2017-04-04T09:53:12.278Z,455
2017-04-04T09:54:21.176Z,455
2017-04-04T09:55:30.066Z,455
2017-04-04T09:56:38.962Z,445
2017-04-04T09:57:48.002Z,440
2017-04-04T09:58:56.894Z,430
2017-04-04T10:00:05.788Z,435
2017-04-04T10:01:15.001Z,430
2017-04-04T10:02:23.893Z,435
2017-04-04T10:03:33.266Z,410
2017-04-04T10:04:42.162Z,405
2017-04-04T10:05:51.056Z,385
2017-04-04T10:07:00.271Z,365
2017-04-04T10:08:09.489Z,360
2017-04-04T10:09:18.855Z,345
2017-04-04T10:10:28.070Z,345
2017-04-04T10:11:36.960Z,350
2017-04-04T10:12:46.211Z,375
2017-04-04T10:13:55.106Z,410
2017-04-04T10:15:04.048Z,425
2017-04-04T10:16:12.949Z,410
2017-04-04T10:17:22.174Z,395
2017-04-04T10:18:31.070Z,390
2017-04-04T10:19:39.958Z,385
2017-04-04T10:20:49.428Z,385
2017-04-04T10:21:58.324Z,400
2017-04-04T10:23:07.541Z,425
2017-04-04T10:24:16.430Z,455
2017-04-04T10:25:25.664Z,475
2017-04-04T10:26:34.914Z,510
2017-04-04T10:27:43.812Z,555
2017-04-04T10:28:52.702Z,585
2017-04-04T10:30:01.593Z,605
2017-04-04T10:31:10.485Z,610
2017-04-04T10:32:19.530Z,615
2017-04-04T10:33:28.422Z,620
2017-04-04T10:34:37.312Z,595
2017-04-04T10:35:46.207Z,575
2017-04-04T10:36:55.104Z,550
2017-04-04T10:38:04.146Z,530
2017-04-04T10:39:13.040Z,500
2017-04-04T10:40:22.301Z,480
2017-04-04T10:41:31.845Z,465
2017-04-04T10:42:40.738Z,465
2017-04-04T10:43:49.729Z,450
2017-04-04T10:44:58.622Z,435
2017-04-04T10:46:07.518Z,420
2017-04-04T10:47:16.408Z,400
2017-04-04T10:48:25.302Z,395
2017-04-04T10:49:34.346Z,390
2017-04-04T10:50:43.248Z,385
2017-04-04T10:51:52.469Z,370
2017-04-04T10:53:01.678Z,370
2017-04-04T10:54:10.898Z,370
2017-04-04T10:55:19.792Z,375
2017-04-04T10:56:29.015Z,380
2017-04-04T10:57:38.238Z,385
2017-04-04T10:58:47.128Z,395
2017-04-04T10:59:56.361Z,405
2017-04-04T11:01:05.514Z,390
2017-04-04T11:02:14.408Z,385
2017-04-04T11:03:23.305Z,390
2017-04-04T11:04:32.194Z,400
2017-04-04T11:05:41.092Z,425
2017-04-04T11:06:50.338Z,440
2017-04-04T11:07:59.553Z,440
2017-04-04T11:09:08.443Z,440
2017-04-04T11:10:17.335Z,440
2017-04-04T11:11:26.229Z,445
2017-04-04T11:12:35.232Z,440
2017-04-04T11:13:44.124Z,420
2017-04-04T11:14:53.016Z,380
2017-04-04T11:16:01.909Z,380
2017-04-04T11:17:10.813Z,380
2017-04-04T11:18:19.759Z,385
2017-04-04T11:19:28.645Z,395
2017-04-04T11:20:37.861Z,425
2017-04-04T11:21:46.753Z,455
2017-04-04T11:22:55.649Z,450
2017-04-04T11:24:05.265Z,430
2017-04-04T11:25:14.487Z,405
2017-04-04T11:26:23.714Z,385
2017-04-04T11:27:32.603Z,385
2017-04-04T11:28:41.493Z,385
2017-04-04T11:29:50.637Z,380
2017-04-04T11:30:59.530Z,390
2017-04-04T11:32:08.749Z,385
2017-04-04T11:33:17.964Z,385
2017-04-04T11:34:27.181Z,385
2017-04-04T11:35:36.597Z,385
2017-04-04T11:36:45.529Z,385
2017-04-04T11:37:54.751Z,390
2017-04-04T11:39:03.643Z,390
2017-04-04T11:40:13.521Z,390
2017-04-04T11:41:22.565Z,390
2017-04-04T11:42:31.458Z,390
2017-04-04T11:43:40.681Z,395
2017-04-04T11:44:49.900Z,395
2017-04-04T11:45:58.792Z,400
2017-04-04T11:47:07.789Z,405
2017-04-04T11:48:17.011Z,410
2017-04-04T11:49:25.904Z,410
2017-04-04T11:50:35.123Z,410
2017-04-04T11:51:44.020Z,415
2017-04-04T11:52:53.209Z,425
2017-04-04T11:54:02.102Z,435
2017-04-04T11:55:10.999Z,455
2017-04-04T11:56:19.897Z,470
2017-04-04T11:57:29.122Z,485
2017-04-04T11:58:38.175Z,1010
2017-04-04T11:59:47.077Z,2310
2017-04-04T12:00:56.617Z,2390
2017-04-04T12:02:05.836Z,2345
2017-04-04T12:03:14.734Z,2395
2017-04-04T12:04:23.874Z,2635
2017-04-04T12:05:32.775Z,2900
2017-04-04T12:06:42.319Z,2670
2017-04-04T12:07:51.212Z,2570
2017-04-04T12:09:00.107Z,2475
2017-04-04T12:10:09.153Z,2515
2017-04-04T12:11:18.050Z,2270
2017-04-04T12:12:26.953Z,1745
2017-04-04T12:13:35.852Z,1315
2017-04-04T12:14:44.748Z,1490
2017-04-04T12:15:53.699Z,1960
2017-04-04T12:17:02.929Z,2525
2017-04-04T12:18:11.829Z,2425
2017-04-04T12:19:20.727Z,2360
2017-04-04T12:20:29.949Z,2470
2017-04-04T12:21:38.901Z,2725
2017-04-04T12:22:47.809Z,2775
2017-04-04T12:23:56.710Z,1790
2017-04-04T12:25:05.611Z,1375
2017-04-04T12:26:14.843Z,1685
2017-04-04T12:27:23.898Z,2165
2017-04-04T12:28:32.807Z,1910
2017-04-04T12:29:41.709Z,2060
2017-04-04T12:30:50.616Z,2555
2017-04-04T12:31:59.523Z,2440
2017-04-04T12:33:08.681Z,1745
2017-04-04T12:34:17.584Z,2010
2017-04-04T12:35:26.818Z,2235
2017-04-04T12:36:35.733Z,2610
2017-04-04T12:37:44.642Z,1395
2017-04-04T12:38:53.720Z,2055
2017-04-04T12:40:02.629Z,2500
2017-04-04T12:41:11.561Z,2075
2017-04-04T12:42:20.881Z,2090
2017-04-04T12:43:30.122Z,2410
2017-04-04T12:44:39.180Z,2460
2017-04-04T12:45:48.411Z,2735
2017-04-04T12:46:57.642Z,2730
2017-04-04T12:48:06.869Z,3230
2017-04-04T12:49:15.865Z,2450
2017-04-04T12:50:26.002Z,1750
2017-04-04T12:51:35.563Z,2375
2017-04-04T12:52:45.447Z,2555
2017-04-04T12:53:54.677Z,2585
2017-04-04T12:55:04.880Z,2515
2017-04-04T12:56:14.481Z,2955
2017-04-04T12:57:24.359Z,1630
2017-04-04T12:58:34.572Z,2090
2017-04-04T12:59:44.781Z,1365
2017-04-04T13:00:53.686Z,1945
2017-04-04T13:02:03.071Z,1955
2017-04-04T13:03:12.296Z,1310
2017-04-04T13:04:21.209Z,2085
2017-04-04T13:05:30.797Z,2210
2017-04-04T13:06:40.027Z,1415
2017-04-04T13:07:49.178Z,2160
2017-04-04T13:08:58.403Z,2100
2017-04-04T13:10:07.630Z,2085
2017-04-04T13:11:16.855Z,2420
2017-04-04T13:12:25.754Z,2240
2017-04-04T13:13:35.054Z,1775
2017-04-04T13:14:43.964Z,1810
2017-04-04T13:15:52.864Z,2035
2017-04-04T13:17:01.767Z,1400
2017-04-04T13:18:11.364Z,2120
2017-04-04T13:19:20.420Z,2295
2017-04-04T13:20:29.648Z,2210
2017-04-04T13:21:38.554Z,2090
2017-04-04T13:22:48.106Z,1920
2017-04-04T13:23:57.708Z,1880
2017-04-04T13:25:07.190Z,1290
2017-04-04T13:26:16.098Z,1355
2017-04-04T13:27:25.003Z,1360
2017-04-04T13:28:34.231Z,1445
2017-04-04T13:29:43.138Z,845
2017-04-04T13:30:52.741Z,970
2017-04-04T13:32:01.653Z,1365
2017-04-04T13:33:10.569Z,1075
2017-04-04T13:34:19.477Z,1840
2017-04-04T13:35:28.383Z,2045
2017-04-04T13:36:37.341Z,2075
2017-04-04T13:37:46.572Z,2290
2017-04-04T13:38:55.797Z,1585
2017-04-04T13:40:04.732Z,1310
2017-04-04T13:41:13.635Z,1900
2017-04-04T13:42:23.109Z,2265
2017-04-04T13:43:32.009Z,2285
2017-04-04T13:44:40.915Z,2790
2017-04-04T13:45:49.817Z,2755
2017-04-04T13:46:58.720Z,2605
2017-04-04T13:48:07.670Z,2865
2017-04-04T13:49:16.897Z,2610
2017-04-04T13:50:25.799Z,2445
2017-04-04T13:51:35.024Z,2770
2017-04-04T13:52:43.933Z,3195
2017-04-04T13:53:52.992Z,3090
2017-04-04T13:55:01.898Z,2375
2017-04-04T13:56:10.848Z,2275
2017-04-04T13:57:19.758Z,2480
2017-04-04T13:58:28.987Z,2560
2017-04-04T13:59:38.388Z,2965
2017-04-04T14:00:47.310Z,2455
2017-04-04T14:01:56.220Z,2925
2017-04-04T14:03:05.128Z,3275
2017-04-04T14:04:14.364Z,3195
2017-04-04T14:05:23.652Z,3280
2017-04-04T14:06:32.562Z,3045
2017-04-04T14:07:41.468Z,3080
2017-04-04T14:08:50.703Z,3260
2017-04-04T14:09:59.619Z,3115
2017-04-04T14:11:08.582Z,3540
2017-04-04T14:12:17.820Z,3530
2017-04-04T14:13:26.733Z,3415
2017-04-04T14:14:35.640Z,3385
2017-04-04T14:15:44.549Z,3320
2017-04-04T14:16:53.457Z,3270
2017-04-04T14:18:02.372Z,3100
2017-04-04T14:19:11.614Z,3140
2017-04-04T14:20:20.526Z,3345
2017-04-04T14:21:29.760Z,3215
2017-04-04T14:22:38.918Z,3365
2017-04-04T14:23:47.832Z,3445
2017-04-04T14:24:57.066Z,3305
2017-04-04T14:26:05.983Z,2955
2017-04-04T14:27:15.225Z,2845
2017-04-04T14:28:24.384Z,2840
2017-04-04T14:29:33.622Z,3010
2017-04-04T14:30:42.541Z,3230
2017-04-04T14:31:51.741Z,3060
2017-04-04T14:33:01.304Z,3190
2017-04-04T14:34:10.228Z,3315
2017-04-04T14:35:19.195Z,3245
2017-04-04T14:36:28.116Z,3215
2017-04-04T14:37:37.678Z,3240
2017-04-04T14:38:46.646Z,3065
2017-04-04T14:39:55.934Z,3005
2017-04-04T14:41:05.205Z,2940
2017-04-04T14:42:14.457Z,2840
2017-04-04T14:43:23.742Z,2745
2017-04-04T14:44:32.667Z,2610
2017-04-04T14:45:41.914Z,2835
2017-04-04T14:46:50.831Z,2705
2017-04-04T14:47:59.745Z,2835
2017-04-04T14:49:08.665Z,2820
2017-04-04T14:50:18.232Z,2800
2017-04-04T14:51:27.474Z,2685
2017-04-04T14:52:36.451Z,2455
2017-04-04T14:53:45.524Z,1825
2017-04-04T14:54:54.558Z,1735
2017-04-04T14:56:03.502Z,1735
2017-04-04T14:57:12.457Z,2045
2017-04-04T14:58:21.693Z,2460
2017-04-04T14:59:31.033Z,2110
2017-04-04T15:00:40.276Z,1470
2017-04-04T15:01:49.526Z,2060
2017-04-04T15:02:58.767Z,2130
2017-04-04T15:04:07.689Z,1785
2017-04-04T15:05:16.651Z,1730
2017-04-04T15:06:25.898Z,2425
2017-04-04T15:07:35.138Z,2375
2017-04-04T15:08:44.378Z,2175
2017-04-04T15:09:53.287Z,1645
2017-04-04T15:11:02.401Z,1235
2017-04-04T15:12:11.314Z,1365
2017-04-04T15:13:20.554Z,1395
2017-04-04T15:14:29.460Z,1820
2017-04-04T15:15:38.697Z,2105
2017-04-04T15:16:47.870Z,2205
2017-04-04T15:17:57.438Z,2210
2017-04-04T15:19:06.681Z,2220
2017-04-04T15:20:15.587Z,2260
2017-04-04T15:21:24.498Z,2445
2017-04-04T15:22:33.457Z,2475
2017-04-04T15:23:42.372Z,2460
2017-04-04T15:24:51.612Z,2395
2017-04-04T15:26:00.526Z,2400
2017-04-04T15:27:09.442Z,2325
2017-04-04T15:28:18.507Z,2215
2017-04-04T15:29:27.747Z,2215
2017-04-04T15:30:36.987Z,2225
2017-04-04T15:31:45.898Z,2190
2017-04-04T15:32:54.857Z,2160
2017-04-04T15:34:04.670Z,2200
2017-04-04T15:35:14.231Z,2235
2017-04-04T15:36:23.147Z,2240
2017-04-04T15:37:32.102Z,2185
2017-04-04T15:38:41.675Z,2060
2017-04-04T15:39:50.639Z,2015
2017-04-04T15:40:59.558Z,2060
2017-04-04T15:42:08.798Z,2065
2017-04-04T15:43:17.718Z,2040
2017-04-04T15:44:26.952Z,2000
2017-04-04T15:45:36.389Z,1985
2017-04-04T15:46:45.633Z,1980
2017-04-04T15:47:54.572Z,2000
2017-04-04T15:49:03.490Z,1885
2017-04-04T15:50:12.726Z,1820
2017-04-04T15:51:21.793Z,1875
2017-04-04T15:52:31.030Z,1890
2017-04-04T15:53:40.273Z,1895
2017-04-04T15:54:49.836Z,1805
2017-04-04T15:55:58.744Z,1770
2017-04-04T15:57:07.904Z,1730
2017-04-04T15:58:16.809Z,1760
2017-04-04T15:59:25.714Z,1755
2017-04-04T16:00:34.626Z,1730
2017-04-04T16:01:43.539Z,1685
2017-04-04T16:02:52.593Z,1635
2017-04-04T16:04:01.499Z,1645
2017-04-04T16:05:10.406Z,1650
2017-04-04T16:06:19.311Z,1605
2017-04-04T16:07:28.546Z,1475
2017-04-04T16:08:37.703Z,1460
2017-04-04T16:09:46.932Z,1445
2017-04-04T16:10:55.842Z,1360